createdAt,value
2023-02-11T00:03:42.337Z,2.14
2023-02-11T00:08:44.168Z,2.28
2023-02-11T00:13:46.289Z,2.37
2023-02-11T00:18:48.771Z,2.44
2023-02-11T00:23:50.452Z,2.56
2023-02-11T00:28:52.723Z,2.54
2023-02-11T00:33:54.541Z,2.64
2023-02-11T00:38:57.299Z,2.67
2023-02-11T00:43:59.714Z,2.63
2023-02-11T00:49:04.153Z,2.62
2023-02-11T00:54:06.085Z,2.74
2023-02-11T00:59:07.713Z,2.89
2023-02-11T01:04:09.356Z,2.82
2023-02-11T01:09:10.936Z,2.81
2023-02-11T01:14:12.546Z,2.72
2023-02-11T01:19:14.247Z,2.72
2023-02-11T01:24:15.860Z,2.71
2023-02-11T01:29:19.371Z,2.70
2023-02-11T01:34:21.008Z,2.75
2023-02-11T01:39:22.617Z,2.70
2023-02-11T01:44:25.848Z,2.76
2023-02-11T01:49:30.935Z,2.78
2023-02-11T01:54:58.234Z,2.80
2023-02-11T02:00:18.039Z,2.82
2023-02-11T02:05:36.983Z,2.96
2023-02-11T02:10:41.470Z,3.15
2023-02-11T02:16:09.243Z,3.30
2023-02-11T02:21:36.522Z,3.36
2023-02-11T02:26:52.078Z,3.45
2023-02-11T02:32:12.458Z,3.54
2023-02-11T02:37:55.147Z,3.55
2023-02-11T02:42:57.897Z,3.61
2023-02-11T02:47:59.546Z,3.71
2023-02-11T02:53:26.787Z,3.80
2023-02-11T02:59:04.312Z,3.83
2023-02-11T03:04:22.997Z,3.94
2023-02-11T03:09:46.174Z,4.03
2023-02-11T03:14:50.199Z,4.00
2023-02-11T03:19:51.864Z,3.95
2023-02-11T03:24:54.050Z,3.96
2023-02-11T03:30:06.680Z,4.00
2023-02-11T03:35:15.746Z,4.00
2023-02-11T03:40:21.852Z,3.98
2023-02-11T03:45:24.626Z,3.95
2023-02-11T03:50:27.265Z,3.91
2023-02-11T03:55:29.874Z,3.89
2023-02-11T04:00:33.507Z,3.88
2023-02-11T04:05:35.143Z,3.97
2023-02-11T04:10:36.820Z,4.03
2023-02-11T04:15:38.545Z,4.08
2023-02-11T04:20:40.136Z,4.10
2023-02-11T04:25:42.605Z,4.11
2023-02-11T04:30:44.411Z,4.09
2023-02-11T04:35:46.096Z,4.12
2023-02-11T04:40:47.690Z,4.08
2023-02-11T04:45:49.655Z,4.00
2023-02-11T04:50:53.050Z,3.93
2023-02-11T04:55:54.658Z,3.88
2023-02-11T05:00:56.355Z,3.86
2023-02-11T05:05:58.034Z,3.71
2023-02-11T05:10:59.754Z,3.59
2023-02-11T05:16:01.417Z,3.54
2023-02-11T05:21:09.694Z,3.55
2023-02-11T05:26:11.980Z,3.55
2023-02-11T05:31:14.860Z,3.55
2023-02-11T05:36:16.947Z,3.53
2023-02-11T05:41:19.244Z,3.51
2023-02-11T05:46:20.926Z,3.46
2023-02-11T05:51:22.921Z,3.41
2023-02-11T05:56:24.512Z,3.44
2023-02-11T06:01:26.520Z,3.41
2023-02-11T06:06:28.218Z,3.40
2023-02-11T06:11:29.895Z,3.40
2023-02-11T06:16:31.540Z,3.42
2023-02-11T06:21:43.224Z,3.47
2023-02-11T06:26:45.947Z,3.44
2023-02-11T06:31:47.801Z,3.47
2023-02-11T06:36:49.456Z,3.53
2023-02-11T06:41:51.104Z,3.57
2023-02-11T06:46:52.845Z,3.67
2023-02-11T06:51:54.517Z,3.72
2023-02-11T06:56:56.092Z,3.73
2023-02-11T07:01:57.840Z,3.75
2023-02-11T07:06:59.530Z,3.71
2023-02-11T07:12:01.158Z,3.66
2023-02-11T07:17:04.857Z,3.62
2023-02-11T07:22:06.552Z,3.54
2023-02-11T07:27:08.186Z,3.51
2023-02-11T07:32:10.221Z,3.50
2023-02-11T07:37:11.887Z,3.52
2023-02-11T07:42:13.629Z,3.51
2023-02-11T07:47:15.720Z,3.51
2023-02-11T07:52:17.722Z,3.53
2023-02-11T07:57:19.441Z,3.59
2023-02-11T08:02:21.103Z,3.63
2023-02-11T08:07:22.813Z,3.72
2023-02-11T08:12:24.426Z,3.84
2023-02-11T08:17:26.090Z,3.93
2023-02-11T08:22:27.743Z,4.04
2023-02-11T08:27:29.442Z,4.10
2023-02-11T08:32:31.128Z,4.17
2023-02-11T08:37:33.191Z,4.17
2023-02-11T08:42:34.872Z,4.12
2023-02-11T08:47:37.101Z,4.16
2023-02-11T08:52:38.757Z,4.21
2023-02-11T08:57:40.359Z,4.22
2023-02-11T09:02:42.057Z,4.26
2023-02-11T09:07:43.816Z,4.38
2023-02-11T09:12:45.455Z,4.46
2023-02-11T09:17:47.058Z,4.49
2023-02-11T09:22:48.718Z,4.60
2023-02-11T09:27:51.392Z,4.64
2023-02-11T09:32:52.993Z,4.63
2023-02-11T09:37:54.727Z,4.61
2023-02-11T09:43:14.697Z,4.54
2023-02-11T09:48:19.274Z,4.58
2023-02-11T09:53:26.210Z,4.58
2023-02-11T09:58:36.107Z,4.53
2023-02-11T10:03:49.809Z,4.54
2023-02-11T10:09:09.580Z,4.56
2023-02-11T10:14:38.091Z,4.67
2023-02-11T10:20:03.424Z,4.75
2023-02-11T10:25:28.157Z,4.78
2023-02-11T10:30:37.390Z,4.80
2023-02-11T10:35:39.116Z,4.89
2023-02-11T10:40:40.938Z,4.98
2023-02-11T10:45:45.424Z,5.11
2023-02-11T10:50:47.054Z,5.12
2023-02-11T10:55:54.407Z,5.21
2023-02-11T11:00:57.336Z,5.26
2023-02-11T11:06:01.260Z,5.33
2023-02-11T11:11:09.015Z,5.39
2023-02-11T11:16:13.774Z,5.45
2023-02-11T11:21:21.763Z,5.49
2023-02-11T11:26:25.995Z,5.51
2023-02-11T11:31:37.902Z,5.55
2023-02-11T11:36:40.295Z,5.50
2023-02-11T11:41:51.374Z,5.47
2023-02-11T11:47:41.390Z,5.51
2023-02-11T11:52:51.025Z,5.51
2023-02-11T11:57:52.869Z,5.57
2023-02-11T12:03:23.945Z,5.60
2023-02-11T12:08:44.047Z,5.58
2023-02-11T12:14:07.361Z,5.60
2023-02-11T12:19:43.177Z,5.56
2023-02-11T12:25:00.173Z,5.54
2023-02-11T12:30:10.778Z,5.51
2023-02-11T12:35:32.779Z,5.51
2023-02-11T12:40:46.569Z,5.46
2023-02-11T12:46:10.120Z,5.38
2023-02-11T12:51:20.943Z,5.35
2023-02-11T12:56:32.212Z,5.33
2023-02-11T13:01:39.989Z,5.34
2023-02-11T13:07:02.300Z,5.37
2023-02-11T13:12:24.692Z,5.38
2023-02-11T13:17:32.399Z,5.41
2023-02-11T13:22:44.694Z,5.46
2023-02-11T13:28:08.106Z,5.46
2023-02-11T13:33:15.610Z,5.49
2023-02-11T13:38:18.124Z,5.53
2023-02-11T13:43:24.924Z,5.61
2023-02-11T13:48:27.821Z,5.66
2023-02-11T13:53:29.567Z,5.68
2023-02-11T13:58:31.131Z,5.68
2023-02-11T14:03:56.578Z,5.64
2023-02-11T14:09:18.435Z,5.64
2023-02-11T14:14:33.912Z,5.59
2023-02-11T14:19:38.011Z,5.54
2023-02-11T14:24:51.135Z,5.55
2023-02-11T14:30:15.053Z,5.53
2023-02-11T14:35:37.886Z,5.56
2023-02-11T14:41:22.867Z,5.58
2023-02-11T14:46:25.354Z,5.57
2023-02-11T14:51:38.895Z,5.56
2023-02-11T14:56:42.282Z,5.61
2023-02-11T15:01:47.196Z,5.60
2023-02-11T15:06:51.641Z,5.61
2023-02-11T15:11:54.473Z,5.59
2023-02-11T15:16:58.988Z,5.59
2023-02-11T15:22:00.637Z,5.60
2023-02-11T15:27:04.526Z,5.65
2023-02-11T15:32:21.685Z,5.72
2023-02-11T15:37:26.479Z,5.68
2023-02-11T15:42:40.786Z,5.68
2023-02-11T15:47:51.542Z,5.65
2023-02-11T15:52:53.783Z,5.69
2023-02-11T15:58:00.983Z,5.61
2023-02-11T16:03:03.219Z,5.55
2023-02-11T16:08:21.793Z,5.49
2023-02-11T16:13:23.911Z,5.44
2023-02-11T16:18:39.273Z,5.39
2023-02-11T16:23:42.420Z,5.31
2023-02-11T16:28:44.077Z,5.23
2023-02-11T16:33:45.691Z,5.20
2023-02-11T16:38:47.322Z,5.14
2023-02-11T16:43:48.937Z,5.02
2023-02-11T16:48:50.942Z,4.93
2023-02-11T16:53:52.615Z,4.85
2023-02-11T16:58:54.228Z,4.75
2023-02-11T17:03:55.906Z,4.67
2023-02-11T17:08:57.735Z,4.63
2023-02-11T17:13:59.337Z,4.59
2023-02-11T17:19:01.024Z,4.59
2023-02-11T17:24:02.691Z,4.64
2023-02-11T17:29:08.958Z,4.70
2023-02-11T17:34:10.884Z,4.75
2023-02-11T17:39:12.966Z,4.83
2023-02-11T17:44:16.307Z,4.89
2023-02-11T17:49:18.043Z,4.94
2023-02-11T17:54:20.202Z,4.95
2023-02-11T17:59:21.886Z,4.98
2023-02-11T18:04:23.549Z,5.03
2023-02-11T18:09:26.110Z,5.05
2023-02-11T18:14:27.724Z,5.04
2023-02-11T18:19:32.023Z,5.01
2023-02-11T18:24:33.729Z,5.02
2023-02-11T18:29:35.662Z,5.02
2023-02-11T18:34:37.351Z,5.00
2023-02-11T18:39:39.280Z,4.97
2023-02-11T18:44:40.910Z,4.90
2023-02-11T18:49:42.535Z,4.86
2023-02-11T18:54:44.175Z,4.83
2023-02-11T18:59:45.800Z,4.81
2023-02-11T19:04:47.566Z,4.77
2023-02-11T19:09:49.465Z,4.80
2023-02-11T19:14:51.185Z,4.83
2023-02-11T19:19:53.135Z,4.83
2023-02-11T19:24:54.807Z,4.83
2023-02-11T19:29:56.588Z,4.84
2023-02-11T19:34:58.211Z,4.87
2023-02-11T19:39:59.833Z,4.86
2023-02-11T19:45:01.458Z,4.85
2023-02-11T19:50:04.813Z,4.86
2023-02-11T19:55:07.455Z,4.84
2023-02-11T20:00:11.121Z,4.87
2023-02-11T20:05:15.894Z,4.89
2023-02-11T20:10:18.116Z,4.90
2023-02-11T20:15:19.792Z,4.91
2023-02-11T20:20:21.422Z,4.89
2023-02-11T20:25:23.098Z,4.88
2023-02-11T20:30:24.731Z,4.87
2023-02-11T20:35:26.368Z,4.90
2023-02-11T20:40:28.015Z,4.86
2023-02-11T20:45:29.642Z,4.84
2023-02-11T20:50:31.291Z,4.83
2023-02-11T20:55:37.126Z,4.84
2023-02-11T21:00:38.746Z,4.86
2023-02-11T21:05:40.390Z,4.85
2023-02-11T21:10:42.910Z,4.88
2023-02-11T21:15:44.567Z,4.96
2023-02-11T21:20:46.263Z,5.02
2023-02-11T21:25:47.913Z,5.03
2023-02-11T21:30:50.699Z,5.01
2023-02-11T21:35:59.075Z,5.01
2023-02-11T21:41:04.835Z,5.03
2023-02-11T21:46:09.079Z,5.05
2023-02-11T21:51:24.597Z,5.06
2023-02-11T21:56:29.582Z,5.08
2023-02-11T22:01:33.280Z,5.12
2023-02-11T22:06:35.014Z,5.12
2023-02-11T22:11:37.004Z,5.15
2023-02-11T22:16:38.698Z,5.16
2023-02-11T22:21:40.785Z,5.13
2023-02-11T22:26:42.411Z,5.11
2023-02-11T22:31:44.319Z,5.17
2023-02-11T22:36:46.985Z,5.22
2023-02-11T22:41:49.017Z,5.22
2023-02-11T22:46:51.821Z,5.18
2023-02-11T22:51:53.532Z,5.16
2023-02-11T22:56:55.166Z,5.20
2023-02-11T23:01:56.928Z,5.24
2023-02-11T23:06:58.620Z,5.24
2023-02-11T23:12:00.428Z,5.26
2023-02-11T23:17:02.032Z,5.27
2023-02-11T23:22:03.777Z,5.25
2023-02-11T23:27:05.539Z,5.27
2023-02-11T23:32:07.164Z,5.24
2023-02-11T23:37:08.835Z,5.25
2023-02-11T23:42:12.006Z,5.24
2023-02-11T23:47:13.644Z,5.26
2023-02-11T23:52:15.248Z,5.27
2023-02-11T23:57:16.928Z,5.29
